Time;durP1;ratioP1;P1;durP2;ratioP2;P2;SDS_P1;SDS_P2;PMS_P1;PMS_P2;Temp;Humidity;BMP_temperature;BMP_pressure;BME280_temperature;BME280_humidity;BME280_pressure;Samples;Min_cycle;Max_cycle;Signal;HPM_P1;HPM_P2
2021/12/14 00:00:24;;;;;;;8.02;6.93;;;9.50;99.90;;;;;;5040839;28;20448;-44
2021/12/14 00:02:51;;;;;;;9.45;7.28;;;9.50;99.90;;;;;;5029159;28;20485;-44
2021/12/14 00:05:19;;;;;;;10.45;7.50;;;9.50;99.90;;;;;;5035882;28;20063;-43
2021/12/14 00:07:45;;;;;;;9.13;7.25;;;9.60;99.90;;;;;;5048699;28;20029;-44
2021/12/14 00:10:31;;;;;;;9.85;7.10;;;9.50;99.90;;;;;;5036617;28;20048;-42
2021/12/14 00:13:06;;;;;;;9.68;7.95;;;9.50;99.90;;;;;;5048450;28;20434;-43
2021/12/14 00:15:31;;;;;;;9.10;7.70;;;9.50;99.90;;;;;;5036005;28;20028;-43
2021/12/14 00:18:02;;;;;;;7.70;6.50;;;9.60;99.90;;;;;;5048860;28;20041;-43
2021/12/14 00:20:36;;;;;;;9.00;6.40;;;9.50;99.90;;;;;;5035142;28;20049;-43
2021/12/14 00:25:34;;;;;;;8.70;7.40;;;9.60;99.90;;;;;;5035942;28;20079;-43
2021/12/14 00:28:08;;;;;;;6.55;5.75;;;9.60;99.90;;;;;;5028029;28;20836;-43
2021/12/14 00:30:35;;;;;;;9.60;6.65;;;9.60;99.90;;;;;;5039484;28;20063;-44
2021/12/14 00:33:12;;;;;;;7.10;6.40;;;9.60;99.90;;;;;;5028982;28;20031;-44
2021/12/14 00:35:39;;;;;;;7.13;5.93;;;9.60;99.90;;;;;;5038552;28;20035;-44
2021/12/14 00:38:07;;;;;;;7.70;6.65;;;9.60;99.90;;;;;;5030962;28;20778;-44
2021/12/14 00:40:41;;;;;;;9.93;7.07;;;9.60;99.90;;;;;;5035838;28;20040;-44
2021/12/14 00:43:08;;;;;;;7.38;6.60;;;9.60;99.90;;;;;;5031454;28;20053;-43
2021/12/14 00:45:38;;;;;;;7.78;6.60;;;9.60;99.90;;;;;;5034593;28;20040;-43
2021/12/14 00:48:05;;;;;;;7.18;6.30;;;9.60;99.90;;;;;;5032433;28;20041;-43
2021/12/14 00:50:32;;;;;;;6.85;6.10;;;9.50;99.90;;;;;;5032586;28;20104;-43
2021/12/14 00:52:59;;;;;;;7.65;6.93;;;9.60;99.90;;;;;;5036071;28;20116;-42
2021/12/14 00:55:32;;;;;;;9.75;6.88;;;9.60;99.90;;;;;;5029511;28;20728;-43
2021/12/14 00:57:58;;;;;;;8.43;7.50;;;9.50;99.90;;;;;;5036709;28;20491;-43
2021/12/14 01:00:29;;;;;;;8.50;7.03;;;9.50;99.90;;;;;;5029841;28;20026;-43
2021/12/14 01:02:55;;;;;;;7.78;6.97;;;9.50;99.90;;;;;;5036864;28;20495;-44
2021/12/14 01:05:25;;;;;;;7.57;6.47;;;9.60;99.90;;;;;;5046647;28;20037;-43
2021/12/14 01:07:52;;;;;;;7.85;6.70;;;9.50;99.90;;;;;;5035904;28;20020;-43
2021/12/14 01:10:46;;;;;;;8.13;6.55;;;9.50;99.90;;;;;;5046035;28;20052;-43
2021/12/14 01:13:12;;;;;;;8.50;7.10;;;9.50;99.90;;;;;;5037223;28;20060;-44
2021/12/14 01:15:52;;;;;;;8.57;7.13;;;9.50;99.90;;;;;;5045267;28;20029;-44
2021/12/14 01:18:44;;;;;;;8.63;6.95;;;9.50;99.90;;;;;;5035875;28;20035;-43
2021/12/14 01:21:30;;;;;;;8.43;7.13;;;9.50;99.90;;;;;;5045998;28;20041;-43
2021/12/14 01:24:06;;;;;;;7.80;6.85;;;9.50;99.90;;;;;;5038728;28;20033;-43
2021/12/14 01:26:34;;;;;;;9.35;8.35;;;9.50;99.90;;;;;;5043818;28;20032;-43
2021/12/14 01:29:02;;;;;;;8.55;7.60;;;9.50;99.90;;;;;;5037727;28;20021;-44
2021/12/14 01:31:35;;;;;;;9.40;8.40;;;9.40;99.90;;;;;;5045744;28;20025;-42
2021/12/14 01:34:03;;;;;;;;;;;9.40;99.90;;;;;;5027108;28;20059;-43
2021/12/14 01:36:43;;;;;;;9.60;8.60;;;9.50;99.90;;;;;;5044766;28;19905;-43
2021/12/14 01:41:52;;;;;;;8.60;7.70;;;9.40;99.90;;;;;;5045972;28;20634;-42
2021/12/14 01:44:18;;;;;;;12.15;8.98;;;9.40;99.90;;;;;;5025208;28;20033;-44
2021/12/14 01:46:49;;;;;;;9.57;7.75;;;9.40;99.90;;;;;;5045559;28;20021;-42
2021/12/14 01:49:16;;;;;;;8.95;8.05;;;9.40;99.90;;;;;;5036020;28;20029;-43
2021/12/14 01:51:45;;;;;;;10.38;8.43;;;9.40;99.90;;;;;;5044636;28;20057;-43
2021/12/14 01:54:13;;;;;;;10.68;8.80;;;9.40;99.90;;;;;;5036240;28;20061;-43
2021/12/14 01:56:39;;;;;;;8.90;8.00;;;9.40;99.90;;;;;;5027125;28;20547;-43
2021/12/14 01:59:34;;;;;;;10.93;9.27;;;9.40;99.90;;;;;;5038494;28;20109;-44
2021/12/14 02:04:47;;;;;;;10.73;8.65;;;9.40;99.90;;;;;;5035902;28;20044;-44
2021/12/14 02:07:16;;;;;;;11.45;9.43;;;9.40;99.90;;;;;;5028423;28;20018;-44
2021/12/14 02:09:42;;;;;;;11.75;9.40;;;9.40;99.90;;;;;;5034403;28;20397;-43
2021/12/14 02:12:16;;;;;;;10.63;7.72;;;9.40;99.90;;;;;;5025480;28;20079;-43
2021/12/14 02:14:42;;;;;;;8.52;7.65;;;9.40;99.90;;;;;;5033710;28;20118;-43
2021/12/14 02:17:11;;;;;;;11.38;9.25;;;9.40;99.90;;;;;;5047069;28;20392;-43
2021/12/14 02:19:37;;;;;;;10.75;9.00;;;9.40;99.90;;;;;;5032202;28;20521;-42
2021/12/14 02:22:06;;;;;;;10.15;8.60;;;9.40;99.90;;;;;;5046279;28;20029;-42
2021/12/14 02:24:31;;;;;;;12.82;10.23;;;9.40;99.90;;;;;;5033360;28;20049;-43
2021/12/14 02:26:58;;;;;;;11.23;9.70;;;9.40;99.90;;;;;;5045682;28;20036;-43
2021/12/14 02:29:27;;;;;;;11.75;10.25;;;9.40;99.90;;;;;;5036461;28;20036;-44
2021/12/14 02:32:00;;;;;;;13.02;10.88;;;9.40;99.90;;;;;;5043611;28;20375;-42
2021/12/14 02:34:26;;;;;;;11.82;9.10;;;9.40;99.90;;;;;;5037869;28;20489;-44
2021/12/14 02:36:52;;;;;;;12.50;10.30;;;9.40;99.90;;;;;;5042451;28;20025;-44
2021/12/14 02:40:04;;;;;;;9.73;8.73;;;9.40;99.90;;;;;;5039407;28;20025;-44
2021/12/14 02:42:14;;;;;;;10.93;9.30;;;9.40;99.90;;;;;;5038119;28;20031;-42
2021/12/14 02:44:41;;;;;;;9.52;8.52;;;9.40;99.90;;;;;;5037707;28;20056;-42
2021/12/14 02:47:12;;;;;;;11.65;9.65;;;9.40;99.90;;;;;;5041034;28;20387;-43
2021/12/14 02:49:40;;;;;;;10.98;9.88;;;9.40;99.90;;;;;;5040534;28;20034;-42
2021/12/14 02:52:11;;;;;;;12.35;9.98;;;9.40;99.90;;;;;;5040410;28;20025;-43
2021/12/14 02:54:44;;;;;;;11.80;10.40;;;9.40;99.90;;;;;;5038474;28;20572;-43
2021/12/14 02:57:15;;;;;;;9.95;8.88;;;9.40;99.90;;;;;;5032820;28;20029;-44
2021/12/14 02:59:43;;;;;;;11.27;10.00;;;9.40;99.90;;;;;;5030271;28;20433;-43
2021/12/14 03:02:12;;;;;;;11.68;9.55;;;9.30;99.90;;;;;;5034010;28;20249;-43
2021/12/14 03:04:45;;;;;;;10.70;9.20;;;9.40;99.90;;;;;;5028040;28;20435;-43
2021/12/14 03:07:12;;;;;;;9.90;8.88;;;9.30;99.90;;;;;;5035994;28;20034;-45
2021/12/14 03:12:21;;;;;;;13.75;11.52;;;9.30;99.90;;;;;;5036115;28;20068;-43
2021/12/14 03:14:50;;;;;;;15.57;11.85;;;9.30;99.90;;;;;;5043130;28;20013;-43
2021/12/14 03:17:16;;;;;;;15.38;12.65;;;9.30;99.90;;;;;;5035068;28;20412;-43
2021/12/14 03:19:42;;;;;;;14.65;12.40;;;9.30;99.90;;;;;;5044078;28;20041;-44
2021/12/14 03:22:30;;;;;;;15.05;12.05;;;9.30;99.90;;;;;;5034402;28;20032;-43
2021/12/14 03:24:56;;;;;;;13.57;11.55;;;9.30;99.90;;;;;;5044092;28;20159;-43
2021/12/14 03:27:21;;;;;;;13.27;11.80;;;9.30;99.90;;;;;;5035324;28;20020;-43
2021/12/14 03:29:47;;;;;;;12.82;10.80;;;9.30;99.90;;;;;;5044847;28;20029;-43
2021/12/14 03:32:12;;;;;;;13.95;10.90;;;9.30;99.90;;;;;;5033410;28;20718;-43
2021/12/14 03:34:40;;;;;;;13.43;10.82;;;9.30;99.90;;;;;;5049540;28;20566;-43
2021/12/14 03:37:07;;;;;;;14.02;11.98;;;9.30;99.90;;;;;;5035668;28;20107;-44
2021/12/14 03:39:39;;;;;;;11.93;10.18;;;9.30;99.90;;;;;;5048729;28;20104;-43
2021/12/14 03:42:10;;;;;;;13.65;10.48;;;9.30;99.90;;;;;;5036084;28;20041;-43
2021/12/14 03:44:40;;;;;;;11.98;10.10;;;9.30;99.90;;;;;;5047626;28;20132;-43
2021/12/14 03:47:14;;;;;;;15.13;10.35;;;9.30;99.90;;;;;;5037551;28;20022;-43
2021/12/14 03:49:47;;;;;;;14.13;12.07;;;9.30;99.90;;;;;;5048360;28;20115;-42
2021/12/14 03:52:16;;;;;;;15.07;11.20;;;9.30;99.90;;;;;;5039070;28;20059;-43
2021/12/14 03:54:42;;;;;;;12.40;11.05;;;9.30;99.90;;;;;;5047271;28;20464;-43
2021/12/14 03:57:08;;;;;;;14.80;12.07;;;9.20;99.90;;;;;;5039458;28;20034;-44
2021/12/14 03:59:34;;;;;;;14.07;11.50;;;9.30;99.90;;;;;;5045330;28;20252;-43
2021/12/14 04:02:03;;;;;;;14.88;11.38;;;9.20;99.90;;;;;;5043190;28;20104;-43
2021/12/14 04:04:36;;;;;;;14.65;10.60;;;9.30;99.90;;;;;;5041801;28;20459;-44
2021/12/14 04:07:05;;;;;;;13.65;11.40;;;9.30;99.90;;;;;;5044587;28;20382;-44
2021/12/14 04:09:34;;;;;;;13.95;11.77;;;9.20;99.90;;;;;;5040640;28;20435;-44
2021/12/14 04:12:00;;;;;;;15.70;12.18;;;9.20;99.90;;;;;;5044761;28;20036;-43
2021/12/14 04:14:29;;;;;;;14.23;12.23;;;9.20;99.90;;;;;;5039814;28;20029;-44
2021/12/14 04:16:56;;;;;;;13.07;11.25;;;9.20;99.90;;;;;;5047232;28;20021;-43
2021/12/14 04:19:25;;;;;;;13.20;10.98;;;9.20;99.90;;;;;;5036528;28;20059;-43
2021/12/14 04:21:54;;;;;;;14.77;12.02;;;9.20;99.90;;;;;;5047256;28;20044;-43
2021/12/14 04:24:27;;;;;;;12.15;10.45;;;9.20;99.90;;;;;;5037605;28;20033;-43
2021/12/14 04:26:55;;;;;;;14.88;12.15;;;9.20;99.90;;;;;;5047706;28;20032;-43
2021/12/14 04:29:21;;;;;;;15.35;12.23;;;9.20;99.90;;;;;;5037616;28;20063;-43
2021/12/14 04:31:49;;;;;;;15.63;11.73;;;9.20;99.90;;;;;;5047995;28;20533;-44
2021/12/14 04:34:17;;;;;;;13.70;11.48;;;9.20;99.90;;;;;;5035283;28;20027;-43
2021/12/14 04:36:50;;;;;;;15.82;11.02;;;9.20;99.90;;;;;;5048562;28;20408;-44
2021/12/14 04:53:11;;;;;;;15.27;12.63;;;9.20;99.90;;;;;;5028803;28;20106;-42
2021/12/14 04:55:42;;;;;;;14.82;11.55;;;9.10;99.90;;;;;;5038784;28;20033;-43
2021/12/14 04:58:08;;;;;;;14.68;11.27;;;9.10;99.90;;;;;;5029206;28;20449;-43
2021/12/14 05:00:46;;;;;;;17.05;12.27;;;9.10;99.90;;;;;;5038818;28;20033;-43
2021/12/14 05:03:20;;;;;;;15.25;12.07;;;9.10;99.90;;;;;;5029664;28;20091;-43
2021/12/14 05:05:56;;;;;;;14.02;11.85;;;9.10;99.90;;;;;;5038684;28;20847;-44
2021/12/14 05:10:59;;;;;;;18.13;11.50;;;9.10;99.90;;;;;;5038908;28;20061;-42
2021/12/14 05:13:28;;;;;;;11.05;9.55;;;9.10;99.90;;;;;;5028821;28;20029;-43
2021/12/14 05:15:54;;;;;;;13.35;10.70;;;9.10;99.90;;;;;;5034969;28;20024;-44
2021/12/14 05:18:20;;;;;;;13.52;10.60;;;9.20;99.90;;;;;;5027818;28;20440;-44
2021/12/14 05:20:47;;;;;;;13.35;10.88;;;9.10;99.90;;;;;;5039015;28;20125;-43
2021/12/14 05:23:25;;;;;;;11.73;9.65;;;9.20;99.90;;;;;;5027673;28;20033;-43
2021/12/14 05:25:51;;;;;;;12.07;9.85;;;9.10;99.90;;;;;;5040040;28;20029;-43
2021/12/14 05:28:19;;;;;;;11.07;8.82;;;9.10;99.90;;;;;;5027306;28;20018;-43
2021/12/14 05:30:49;;;;;;;10.88;9.13;;;9.20;99.90;;;;;;5040104;28;20033;-43
2021/12/14 05:33:20;;;;;;;12.38;9.80;;;9.10;99.90;;;;;;5008739;28;20049;-43
2021/12/14 05:35:48;;;;;;;10.68;8.98;;;9.10;99.90;;;;;;5032885;28;20029;-43
2021/12/14 05:38:20;;;;;;;10.98;8.90;;;9.10;99.90;;;;;;5028807;28;20036;-44
2021/12/14 05:41:08;;;;;;;10.55;8.90;;;9.20;99.90;;;;;;5036700;28;20020;-44
2021/12/14 05:43:32;;;;;;;12.77;10.18;;;9.10;99.90;;;;;;5007284;28;20041;-43
2021/12/14 05:46:02;;;;;;;11.13;9.20;;;9.10;99.90;;;;;;5030672;28;20182;-43
2021/12/14 05:48:32;;;;;;;13.25;9.70;;;9.10;99.90;;;;;;5029245;28;20113;-44
2021/12/14 05:51:09;;;;;;;11.90;8.88;;;9.10;99.90;;;;;;5035221;28;20090;-44
2021/12/14 05:53:39;;;;;;;10.55;8.13;;;9.10;99.90;;;;;;5029299;28;20025;-44
2021/12/14 05:56:15;;;;;;;11.43;8.60;;;9.10;99.90;;;;;;5033902;28;20021;-44
2021/12/14 05:58:41;;;;;;;11.80;9.55;;;9.10;99.90;;;;;;5030263;28;20022;-43
2021/12/14 06:01:10;;;;;;;11.10;8.88;;;9.10;99.90;;;;;;5033916;28;20067;-44
2021/12/14 06:03:46;;;;;;;10.75;8.57;;;9.10;99.90;;;;;;5031558;28;20037;-44
2021/12/14 06:06:32;;;;;;;10.23;8.43;;;9.10;99.90;;;;;;5033931;28;20021;-44
2021/12/14 06:09:15;;;;;;;15.25;10.07;;;9.10;99.90;;;;;;5030091;28;20484;-45
2021/12/14 06:11:43;;;;;;;11.10;8.35;;;9.10;99.90;;;;;;5034778;28;20025;-44
2021/12/14 06:14:21;;;;;;;10.23;8.52;;;9.10;99.90;;;;;;5029840;28;20041;-44
2021/12/14 06:16:49;;;;;;;10.07;8.10;;;9.10;99.90;;;;;;5034268;28;20768;-44
2021/12/14 06:19:19;;;;;;;11.27;8.77;;;9.10;99.90;;;;;;5030330;28;20061;-44
2021/12/14 06:21:48;;;;;;;12.25;9.15;;;9.10;99.90;;;;;;5033121;28;20021;-44
2021/12/14 06:24:17;;;;;;;12.48;8.52;;;9.00;99.90;;;;;;5031336;28;20030;-44
2021/12/14 06:26:49;;;;;;;11.73;9.50;;;9.10;99.90;;;;;;5031064;28;20476;-43
2021/12/14 06:29:25;;;;;;;9.48;7.63;;;9.00;99.90;;;;;;5044225;28;20025;-43
2021/12/14 06:31:52;;;;;;;10.38;8.07;;;9.00;99.90;;;;;;5040699;28;20061;-43
2021/12/14 06:34:27;;;;;;;11.68;9.20;;;9.10;99.90;;;;;;5038679;28;20100;-42
2021/12/14 06:37:19;;;;;;;12.15;9.35;;;9.00;99.90;;;;;;5043055;28;20025;-43
2021/12/14 06:40:22;;;;;;;11.97;9.13;;;9.00;99.90;;;;;;5040585;28;20112;-43
2021/12/14 06:42:58;;;;;;;11.60;8.13;;;9.10;99.90;;;;;;5036568;28;20292;-43
2021/12/14 06:45:34;;;;;;;12.95;9.68;;;9.10;99.90;;;;;;5043913;28;20076;-43
2021/12/14 06:48:20;;;;;;;13.63;9.85;;;9.10;99.90;;;;;;5036043;28;20026;-44
2021/12/14 06:50:50;;;;;;;12.10;9.52;;;9.00;99.90;;;;;;5046616;28;20029;-43
2021/12/14 06:53:17;;;;;;;16.88;11.30;;;9.10;99.90;;;;;;5035893;28;20033;-42
2021/12/14 06:55:45;;;;;;;15.73;11.48;;;9.00;99.90;;;;;;5039425;28;20108;-43
2021/12/14 06:58:17;;;;;;;14.30;9.90;;;9.00;99.90;;;;;;5034320;28;20025;-43
2021/12/14 07:01:05;;;;;;;14.50;10.37;;;9.00;99.90;;;;;;5023490;28;20033;-43
2021/12/14 07:03:47;;;;;;;14.77;10.73;;;9.00;99.90;;;;;;5025256;28;20033;-44
2021/12/14 07:06:28;;;;;;;14.27;10.07;;;9.00;99.90;;;;;;5025633;28;20500;-43
2021/12/14 07:09:17;;;;;;;13.80;10.18;;;9.10;99.90;;;;;;5040846;28;20021;-44
2021/12/14 07:12:05;;;;;;;13.70;10.45;;;9.10;99.90;;;;;;5009714;28;20038;-44
2021/12/14 07:14:50;;;;;;;14.68;10.82;;;9.10;99.90;;;;;;5039773;28;20036;-44
2021/12/14 07:17:40;;;;;;;15.65;11.38;;;9.10;99.90;;;;;;5025386;28;20566;-43
2021/12/14 07:20:18;;;;;;;15.32;11.75;;;9.00;99.90;;;;;;5040552;28;20048;-43
2021/12/14 07:23:04;;;;;;;16.00;12.05;;;9.10;99.90;;;;;;5031145;28;20634;-44
2021/12/14 07:25:40;;;;;;;17.00;11.38;;;9.00;99.90;;;;;;5039872;28;20160;-42
2021/12/14 07:28:14;;;;;;;14.07;10.20;;;9.00;99.90;;;;;;5038115;28;20059;-43
2021/12/14 07:30:46;;;;;;;16.92;12.05;;;9.10;99.90;;;;;;5040698;28;20080;-43
2021/12/14 07:33:16;;;;;;;16.67;11.98;;;9.00;99.90;;;;;;5037322;28;20033;-43
2021/12/14 07:36:05;;;;;;;13.82;10.77;;;9.10;99.90;;;;;;5037681;28;20580;-43
2021/12/14 07:38:49;;;;;;;15.82;11.63;;;9.10;99.90;;;;;;5029108;28;20029;-43
2021/12/14 07:41:30;;;;;;;17.70;12.75;;;9.00;99.90;;;;;;5031600;28;20033;-43
2021/12/14 07:44:00;;;;;;;20.65;13.57;;;9.00;99.90;;;;;;5030210;28;20076;-43
2021/12/14 07:46:48;;;;;;;16.52;12.13;;;9.00;99.90;;;;;;5027508;28;20040;-43
2021/12/14 07:49:27;;;;;;;16.67;12.60;;;9.00;99.90;;;;;;5029379;28;20010;-45
2021/12/14 07:52:02;;;;;;;17.73;12.80;;;9.00;99.90;;;;;;5029330;28;20059;-45
2021/12/14 07:54:32;;;;;;;15.95;11.93;;;9.00;99.90;;;;;;5030183;28;20017;-45
2021/12/14 07:57:02;;;;;;;18.90;13.02;;;9.00;99.90;;;;;;5028471;28;20026;-43
2021/12/14 07:59:37;;;;;;;17.20;13.07;;;9.00;99.90;;;;;;5028476;28;20033;-43
2021/12/14 08:02:28;;;;;;;18.13;12.90;;;9.00;99.90;;;;;;5030268;28;20068;-43
2021/12/14 08:04:58;;;;;;;14.40;10.85;;;9.00;99.90;;;;;;5029597;28;20073;-43
2021/12/14 08:07:33;;;;;;;17.92;13.40;;;9.00;99.90;;;;;;5026412;28;20029;-43
2021/12/14 08:10:27;;;;;;;18.40;13.98;;;9.00;99.90;;;;;;5033663;28;20030;-43
2021/12/14 08:13:04;;;;;;;17.60;12.32;;;9.00;99.90;;;;;;5027065;28;20040;-44
2021/12/14 08:15:46;;;;;;;16.90;12.57;;;9.10;99.90;;;;;;5028735;28;20029;-43
2021/12/14 08:18:28;;;;;;;19.05;14.43;;;9.00;99.90;;;;;;5026103;28;20504;-43
2021/12/14 08:21:05;;;;;;;19.63;14.02;;;9.00;99.90;;;;;;5027193;28;20040;-44
2021/12/14 08:23:40;;;;;;;18.88;13.82;;;9.00;99.90;;;;;;5032782;28;20510;-42
2021/12/14 08:26:05;;;;;;;22.38;14.23;;;9.10;99.90;;;;;;5036789;28;20036;-43
2021/12/14 08:28:32;;;;;;;20.25;15.05;;;9.10;99.90;;;;;;5032971;28;20037;-44
2021/12/14 08:31:01;;;;;;;21.27;15.73;;;9.10;99.90;;;;;;5033480;28;20083;-43
2021/12/14 08:33:30;;;;;;;21.92;16.52;;;9.10;99.90;;;;;;5044792;28;20041;-43
2021/12/14 08:36:03;;;;;;;18.50;14.93;;;9.10;99.90;;;;;;5044259;28;20025;-43
2021/12/14 08:38:32;;;;;;;18.17;13.70;;;9.10;99.90;;;;;;5040127;28;20037;-43
2021/12/14 08:41:08;;;;;;;20.27;15.15;;;9.10;99.90;;;;;;5032570;28;20515;-44
2021/12/14 08:43:35;;;;;;;23.23;15.90;;;9.10;99.90;;;;;;5032093;28;20485;-43
2021/12/14 08:46:05;;;;;;;22.95;16.20;;;9.10;99.90;;;;;;5033294;28;20025;-43
2021/12/14 08:48:35;;;;;;;21.25;16.33;;;9.20;99.90;;;;;;5035983;28;20041;-43
2021/12/14 08:51:13;;;;;;;22.05;16.27;;;9.20;99.90;;;;;;5034406;28;20526;-43
2021/12/14 08:53:43;;;;;;;18.27;14.10;;;9.30;99.90;;;;;;5037954;28;20025;-44
2021/12/14 08:56:11;;;;;;;20.65;15.25;;;9.30;99.90;;;;;;5029811;28;20044;-43
2021/12/14 08:58:37;;;;;;;21.70;16.00;;;9.30;99.90;;;;;;5041551;28;20028;-43
2021/12/14 09:01:16;;;;;;;20.02;15.15;;;9.30;99.90;;;;;;5031828;28;20037;-43
2021/12/14 09:03:53;;;;;;;23.70;17.38;;;9.30;99.90;;;;;;5035715;28;20045;-43
2021/12/14 09:06:22;;;;;;;21.02;16.38;;;9.40;99.90;;;;;;5035609;28;20080;-43
2021/12/14 09:08:49;;;;;;;25.65;19.02;;;9.40;99.90;;;;;;5038964;28;20079;-43
2021/12/14 09:11:19;;;;;;;24.27;18.38;;;9.40;99.90;;;;;;5038047;28;20024;-43
2021/12/14 09:13:45;;;;;;;23.65;17.58;;;9.50;99.90;;;;;;5040433;28;20157;-43
2021/12/14 09:16:21;;;;;;;22.70;16.77;;;9.50;99.90;;;;;;5031118;28;20124;-44
2021/12/14 09:18:51;;;;;;;20.70;16.02;;;9.50;99.90;;;;;;5041834;28;20758;-42
2021/12/14 09:21:22;;;;;;;24.70;17.65;;;9.50;99.90;;;;;;5027527;28;20064;-44
2021/12/14 09:23:52;;;;;;;23.10;16.80;;;9.60;99.90;;;;;;5027843;28;20046;-42
2021/12/14 09:26:22;;;;;;;24.77;17.52;;;9.60;99.90;;;;;;5027131;28;20026;-45
2021/12/14 09:28:49;;;;;;;25.15;18.33;;;9.60;99.90;;;;;;5028558;28;20501;-43
2021/12/14 09:31:19;;;;;;;24.40;18.83;;;9.60;99.90;;;;;;5027546;28;20458;-42
2021/12/14 09:33:47;;;;;;;22.92;18.02;;;9.60;99.90;;;;;;5031050;28;20025;-42
2021/12/14 09:36:14;;;;;;;26.13;18.88;;;9.60;99.90;;;;;;5028115;28;20022;-43
2021/12/14 09:38:44;;;;;;;21.55;16.48;;;9.60;99.90;;;;;;5030608;28;20029;-43
2021/12/14 09:41:12;;;;;;;23.35;16.88;;;9.60;99.90;;;;;;5025974;28;20027;-44
2021/12/14 09:43:40;;;;;;;25.38;18.27;;;9.70;99.90;;;;;;5030762;28;20045;-44
2021/12/14 09:46:08;;;;;;;26.00;19.05;;;9.70;99.90;;;;;;5025058;28;20103;-44
2021/12/14 09:48:44;;;;;;;26.15;19.02;;;9.70;99.90;;;;;;5030197;28;20021;-44
2021/12/14 09:51:16;;;;;;;26.00;18.50;;;9.70;99.90;;;;;;5024119;28;20022;-43
2021/12/14 09:53:45;;;;;;;23.58;17.65;;;9.80;99.90;;;;;;5029253;28;20018;-43
2021/12/14 09:56:12;;;;;;;24.70;18.30;;;9.80;99.90;;;;;;5027409;28;20076;-43
2021/12/14 09:58:43;;;;;;;26.38;18.48;;;9.80;99.90;;;;;;5030454;28;20038;-43
2021/12/14 10:01:19;;;;;;;25.38;18.67;;;9.80;99.90;;;;;;5035123;28;20021;-43
2021/12/14 10:03:48;;;;;;;24.98;18.55;;;9.80;99.90;;;;;;5028414;28;20041;-44
2021/12/14 10:06:18;;;;;;;26.50;18.45;;;9.90;99.90;;;;;;5034325;28;20040;-43
2021/12/14 10:08:51;;;;;;;26.83;19.08;;;9.90;99.90;;;;;;5027885;28;20013;-43
2021/12/14 10:11:33;;;;;;;24.83;18.15;;;9.90;99.90;;;;;;5026784;28;20128;-44
2021/12/14 10:13:59;;;;;;;27.20;19.65;;;9.90;99.90;;;;;;5024857;28;20023;-43
2021/12/14 10:16:24;;;;;;;27.70;20.05;;;9.90;99.90;;;;;;5036181;28;20017;-43
2021/12/14 10:18:56;;;;;;;28.50;19.75;;;9.90;99.90;;;;;;5026391;28;20313;-42
2021/12/14 10:21:34;;;;;;;27.98;19.80;;;9.90;99.90;;;;;;5035430;28;20029;-43
2021/12/14 10:24:02;;;;;;;31.83;20.73;;;9.90;99.90;;;;;;5044500;28;20041;-43
2021/12/14 10:26:30;;;;;;;29.45;21.25;;;9.90;99.90;;;;;;5035769;28;20033;-43
2021/12/14 10:28:59;;;;;;;31.95;20.77;;;10.00;99.90;;;;;;5045913;28;20108;-43
2021/12/14 10:31:29;;;;;;;29.48;20.15;;;10.00;99.90;;;;;;5038692;28;20022;-43
2021/12/14 10:34:00;;;;;;;30.25;21.02;;;10.00;99.90;;;;;;5026729;28;20125;-43
2021/12/14 10:36:38;;;;;;;32.50;22.92;;;10.00;99.90;;;;;;5033954;28;20480;-44
2021/12/14 10:44:44;;;;;;;27.65;20.08;;;10.20;99.90;;;;;;5013383;28;20512;-43
2021/12/14 10:47:12;;;;;;;30.50;21.00;;;10.20;99.90;;;;;;5037027;28;20048;-43
2021/12/14 10:49:41;;;;;;;31.67;23.02;;;10.20;99.90;;;;;;5031760;28;20195;-44
2021/12/14 10:52:14;;;;;;;33.78;21.60;;;10.20;99.90;;;;;;5037436;28;20071;-43
2021/12/14 10:54:41;;;;;;;31.00;21.42;;;10.30;99.90;;;;;;5030339;28;20029;-43
2021/12/14 10:57:12;;;;;;;34.30;23.88;;;10.30;99.90;;;;;;5038216;28;20111;-43
2021/12/14 10:59:42;;;;;;;31.65;22.73;;;10.30;99.90;;;;;;5049716;28;20493;-43
2021/12/14 11:02:09;;;;;;;34.90;23.75;;;10.30;99.90;;;;;;5037866;28;20071;-43
2021/12/14 11:04:51;;;;;;;34.20;23.42;;;10.30;99.90;;;;;;5049440;28;20102;-43
2021/12/14 11:07:22;;;;;;;36.97;25.10;;;10.30;99.90;;;;;;5036377;28;20021;-43
2021/12/14 11:09:53;;;;;;;32.45;23.05;;;10.30;99.90;;;;;;5050512;28;20291;-43
2021/12/14 11:12:29;;;;;;;33.60;23.45;;;10.30;99.90;;;;;;5037347;28;20037;-42
2021/12/14 11:15:04;;;;;;;36.10;24.58;;;10.30;99.90;;;;;;5049854;28;20040;-44
2021/12/14 11:20:20;;;;;;;33.55;23.17;;;10.30;99.90;;;;;;5050073;28;20103;-44
2021/12/14 11:23:12;;;;;;;36.45;24.23;;;10.30;99.90;;;;;;5036953;28;20037;-44
2021/12/14 11:25:52;;;;;;;33.95;23.08;;;10.30;99.90;;;;;;5050081;28;20116;-43
2021/12/14 11:28:35;;;;;;;34.88;24.02;;;10.30;99.90;;;;;;5040362;28;20083;-43
2021/12/14 11:31:12;;;;;;;36.33;24.33;;;10.30;99.90;;;;;;5031021;28;20045;-43
2021/12/14 11:33:51;;;;;;;39.17;25.80;;;10.30;99.90;;;;;;5037324;28;20021;-44
2021/12/14 11:36:33;;;;;;;37.35;24.58;;;10.30;99.90;;;;;;5031368;28;20034;-43
2021/12/14 11:39:24;;;;;;;35.88;24.90;;;10.40;99.90;;;;;;5044008;28;20111;-43
2021/12/14 11:41:57;;;;;;;33.55;23.17;;;10.40;99.90;;;;;;5047226;28;20384;-43
2021/12/14 11:44:30;;;;;;;39.20;26.08;;;10.40;99.90;;;;;;5039705;28;20079;-43
2021/12/14 11:47:22;;;;;;;33.70;23.45;;;10.40;99.90;;;;;;5047448;28;20013;-42
2021/12/14 11:50:00;;;;;;;35.92;24.75;;;10.50;99.90;;;;;;5033437;28;20029;-43
2021/12/14 11:52:50;;;;;;;34.80;24.40;;;10.50;99.90;;;;;;5045487;28;20065;-43
2021/12/14 11:55:29;;;;;;;39.75;26.00;;;10.50;99.90;;;;;;5045427;28;20021;-43
2021/12/14 11:58:35;;;;;;;37.50;25.42;;;10.50;99.90;;;;;;5043388;28;20017;-43
2021/12/14 12:01:05;;;;;;;40.22;27.17;;;10.50;99.90;;;;;;5035533;28;20450;-43
2021/12/14 12:03:35;;;;;;;37.63;25.77;;;10.50;99.90;;;;;;5037787;28;20033;-44
2021/12/14 12:06:44;;;;;;;35.10;23.92;;;10.50;99.90;;;;;;5031255;28;20040;-43
2021/12/14 12:12:05;;;;;;;40.97;26.92;;;10.50;99.90;;;;;;5029179;28;20029;-43
2021/12/14 12:14:58;;;;;;;39.78;28.05;;;10.50;99.90;;;;;;5041461;28;20029;-43
2021/12/14 12:17:24;;;;;;;41.03;27.45;;;10.50;99.90;;;;;;5028036;28;20056;-43
2021/12/14 12:20:28;;;;;;;39.72;27.45;;;10.50;99.90;;;;;;5041337;28;20117;-44
2021/12/14 12:23:16;;;;;;;38.58;26.55;;;10.50;99.90;;;;;;5028469;28;20045;-43
2021/12/14 12:25:46;;;;;;;41.08;26.27;;;10.50;99.90;;;;;;5021644;28;20489;-42
2021/12/14 12:28:24;;;;;;;40.08;25.90;;;10.50;99.90;;;;;;5030277;28;20461;-43
2021/12/14 12:31:06;;;;;;;42.97;28.45;;;10.40;99.90;;;;;;5036977;28;20052;-43
2021/12/14 12:33:42;;;;;;;40.65;27.05;;;10.40;99.90;;;;;;5046770;28;20499;-45
2021/12/14 12:36:07;;;;;;;32.80;23.75;;;10.40;99.90;;;;;;5028736;28;20112;-43
2021/12/14 12:38:59;;;;;;;35.60;24.45;;;10.40;99.90;;;;;;5046921;28;20100;-43
2021/12/14 12:41:37;;;;;;;42.95;27.25;;;10.40;99.90;;;;;;5030703;28;20033;-43
2021/12/14 12:44:09;;;;;;;37.65;24.98;;;10.40;99.90;;;;;;5045017;28;20103;-43
2021/12/14 12:46:39;;;;;;;40.65;26.52;;;10.40;99.90;;;;;;5039199;28;20774;-43
2021/12/14 12:49:18;;;;;;;34.95;23.85;;;10.40;99.90;;;;;;5047514;28;20021;-43
2021/12/14 12:52:05;;;;;;;40.17;27.42;;;10.40;99.90;;;;;;5038567;28;20115;-43
2021/12/14 12:54:36;;;;;;;41.13;27.13;;;10.40;99.90;;;;;;5040381;28;20095;-43
2021/12/14 12:57:08;;;;;;;39.50;25.77;;;10.50;99.90;;;;;;5036933;28;20040;-43
2021/12/14 12:59:50;;;;;;;40.10;26.10;;;10.50;99.90;;;;;;5029801;28;20033;-43
2021/12/14 13:02:16;;;;;;;44.63;27.60;;;10.50;99.90;;;;;;5036199;28;20448;-43
2021/12/14 13:04:45;;;;;;;36.17;24.65;;;10.40;99.90;;;;;;5030037;28;20466;-43
2021/12/14 13:07:11;;;;;;;42.33;26.90;;;10.40;99.90;;;;;;5037747;28;20025;-43
2021/12/14 13:10:10;;;;;;;44.80;26.95;;;10.50;99.90;;;;;;5030349;28;20017;-44
2021/12/14 13:13:02;;;;;;;47.03;28.90;;;10.40;99.90;;;;;;5031847;28;20040;-43
2021/12/14 13:15:41;;;;;;;41.70;26.43;;;10.40;99.90;;;;;;5036714;28;20037;-44
2021/12/14 13:18:32;;;;;;;45.50;28.73;;;10.40;99.90;;;;;;5042562;28;20272;-44
2021/12/14 13:21:14;;;;;;;38.45;25.67;;;10.40;99.90;;;;;;5038662;28;20084;-44
2021/12/14 13:23:45;;;;;;;47.40;29.42;;;10.40;99.90;;;;;;5045629;28;20495;-44
2021/12/14 13:26:41;;;;;;;42.70;29.15;;;10.40;99.90;;;;;;5038241;28;20108;-44
2021/12/14 13:29:12;;;;;;;50.95;30.88;;;10.30;99.90;;;;;;5008415;28;20112;-43
2021/12/14 13:31:45;;;;;;;43.58;28.23;;;10.30;99.90;;;;;;5033624;28;20028;-43
2021/12/14 13:34:21;;;;;;;44.17;28.25;;;10.30;99.90;;;;;;5027268;28;20060;-44
2021/12/14 13:36:48;;;;;;;46.97;31.00;;;10.30;99.90;;;;;;5038907;28;20036;-44
2021/12/14 13:39:15;;;;;;;45.88;30.58;;;10.30;99.90;;;;;;5029185;28;20028;-43
2021/12/14 13:41:58;;;;;;;44.47;28.33;;;10.30;99.90;;;;;;5035408;28;20021;-43
2021/12/14 13:44:25;;;;;;;47.00;29.38;;;10.30;99.90;;;;;;5028267;28;20044;-44
2021/12/14 13:46:52;;;;;;;45.40;28.08;;;10.30;99.90;;;;;;5036232;28;20455;-43
2021/12/14 13:49:17;;;;;;;43.35;27.35;;;10.30;99.90;;;;;;5020604;28;20033;-43